createdAt,value
2017-01-21T00:00:32.165Z,18.74
2017-01-21T00:01:41.149Z,18.69
2017-01-21T00:02:50.152Z,18.71
2017-01-21T00:03:59.135Z,18.5
2017-01-21T00:05:08.120Z,18.26
2017-01-21T00:06:17.118Z,18.25
2017-01-21T00:07:26.120Z,18.07
2017-01-21T00:08:35.109Z,17.99
2017-01-21T00:09:44.099Z,17.91
2017-01-21T00:10:53.083Z,17.66
2017-01-21T00:12:02.068Z,17.55
2017-01-21T00:13:11.054Z,17.51
2017-01-21T00:14:20.047Z,17.44
2017-01-21T00:15:29.056Z,17.39
2017-01-21T00:16:38.054Z,17.3
2017-01-21T00:17:47.044Z,17.1
2017-01-21T00:18:56.041Z,16.95
2017-01-21T00:20:05.020Z,16.99
2017-01-21T00:21:14.024Z,16.92
2017-01-21T00:22:23.010Z,16.73
2017-01-21T00:23:31.998Z,16.62
2017-01-21T00:24:41.000Z,16.52
2017-01-21T00:25:49.994Z,16.47
2017-01-21T00:26:58.979Z,16.41
2017-01-21T00:28:07.967Z,16.32
2017-01-21T00:29:16.966Z,16.27
2017-01-21T00:30:25.950Z,16.23
2017-01-21T00:31:34.948Z,16.26
2017-01-21T00:32:43.924Z,16.15
2017-01-21T00:33:52.960Z,16.01
2017-01-21T00:35:01.950Z,16.07
2017-01-21T00:36:10.969Z,16.11
2017-01-21T00:37:19.966Z,16.06
2017-01-21T00:38:28.974Z,16.01
2017-01-21T00:39:37.960Z,15.99
2017-01-21T00:40:46.945Z,16
2017-01-21T00:41:55.937Z,16.09
2017-01-21T00:43:04.929Z,16.26
2017-01-21T00:44:13.908Z,16.23
2017-01-21T00:45:22.895Z,16.29
2017-01-21T00:46:31.881Z,16.3
2017-01-21T00:47:40.876Z,16.38
2017-01-21T00:48:49.868Z,16.44
2017-01-21T00:49:58.848Z,16.38
2017-01-21T00:51:07.827Z,16.29
2017-01-21T00:52:16.809Z,16.42
2017-01-21T00:53:25.792Z,16.29
2017-01-21T00:54:34.776Z,16.25
2017-01-21T00:55:43.772Z,16.26
2017-01-21T00:56:52.765Z,16.26
2017-01-21T00:58:01.749Z,16.11
2017-01-21T00:59:10.748Z,16.11
2017-01-21T01:00:19.731Z,16.04
2017-01-21T01:01:28.720Z,16
2017-01-21T01:02:37.704Z,16.07
2017-01-21T01:03:46.748Z,16.18
2017-01-21T01:04:55.737Z,16.11
2017-01-21T01:06:04.731Z,16.2
2017-01-21T01:07:13.722Z,16.1
2017-01-21T01:08:22.713Z,16.09
2017-01-21T01:09:31.697Z,16
2017-01-21T01:10:40.672Z,16.01
2017-01-21T01:11:49.671Z,16.07
2017-01-21T01:12:58.655Z,16.09
2017-01-21T01:14:07.628Z,15.86
2017-01-21T01:15:16.612Z,15.81
2017-01-21T01:16:25.595Z,15.85
2017-01-21T01:17:34.588Z,15.79
2017-01-21T01:18:43.576Z,15.76
2017-01-21T01:19:52.572Z,15.78
2017-01-21T01:21:01.541Z,15.79
2017-01-21T01:22:10.523Z,15.82
2017-01-21T01:23:19.509Z,15.7
2017-01-21T01:24:28.530Z,15.82
2017-01-21T01:25:37.525Z,15.7
2017-01-21T01:26:46.509Z,15.81
2017-01-21T01:27:55.506Z,15.53
2017-01-21T01:29:04.498Z,15.53
2017-01-21T01:30:13.487Z,15.53
2017-01-21T01:31:22.476Z,15.53
2017-01-21T01:32:31.467Z,15.51
2017-01-21T01:33:40.455Z,15.61
2017-01-21T01:34:49.439Z,15.44
2017-01-21T01:35:58.427Z,15.42
2017-01-21T01:37:07.417Z,15.38
2017-01-21T01:38:16.400Z,15.34
2017-01-21T01:39:25.376Z,15.34
2017-01-21T01:40:34.372Z,15.36
2017-01-21T01:41:43.355Z,15.34
2017-01-21T01:42:52.334Z,15.46
2017-01-21T01:44:01.330Z,15.45
2017-01-21T01:45:10.318Z,15.31
2017-01-21T01:46:19.308Z,15.24
2017-01-21T01:47:28.286Z,15.38
2017-01-21T01:48:37.273Z,15.37
2017-01-21T01:49:46.252Z,15.27
2017-01-21T01:50:55.238Z,15.31
2017-01-21T01:52:04.230Z,15.26
2017-01-21T01:53:13.219Z,15.13
2017-01-21T01:54:22.202Z,15.13
2017-01-21T01:55:31.197Z,15.09
2017-01-21T01:56:40.189Z,15.06
2017-01-21T01:57:49.165Z,15.08
2017-01-21T01:58:58.143Z,15.11
2017-01-21T02:00:07.132Z,15.11
2017-01-21T02:01:16.119Z,15.15
2017-01-21T02:02:25.116Z,15.13
2017-01-21T02:03:34.519Z,15.12
2017-01-21T02:04:43.506Z,15.16
2017-01-21T02:05:52.527Z,15.01
2017-01-21T02:07:01.508Z,15.04
2017-01-21T02:08:10.497Z,15.08
2017-01-21T02:09:19.488Z,15.11
2017-01-21T02:10:28.509Z,14.97
2017-01-21T02:11:37.481Z,15
2017-01-21T02:12:46.472Z,14.94
2017-01-21T02:13:55.458Z,14.93
2017-01-21T02:15:04.444Z,14.86
2017-01-21T02:16:13.429Z,14.91
2017-01-21T02:17:22.410Z,14.82
2017-01-21T02:18:31.388Z,14.9
2017-01-21T02:19:40.373Z,14.82
2017-01-21T02:20:49.364Z,14.79
2017-01-21T02:21:58.340Z,14.84
2017-01-21T02:23:07.328Z,14.8
2017-01-21T02:24:16.306Z,14.9
2017-01-21T02:25:25.297Z,14.82
2017-01-21T02:26:34.276Z,14.79
2017-01-21T02:27:43.256Z,14.8
2017-01-21T02:28:52.246Z,14.65
2017-01-21T02:30:01.237Z,14.72
2017-01-21T02:31:10.237Z,14.67
2017-01-21T02:32:19.211Z,14.82
2017-01-21T02:33:28.211Z,14.72
2017-01-21T02:34:37.210Z,14.67
2017-01-21T02:35:46.198Z,14.68
2017-01-21T02:36:55.186Z,14.67
2017-01-21T02:38:04.186Z,14.59
2017-01-21T02:39:13.164Z,14.6
2017-01-21T02:40:22.144Z,14.67
2017-01-21T02:41:31.142Z,14.67
2017-01-21T02:42:40.140Z,14.59
2017-01-21T02:43:49.122Z,14.53
2017-01-21T02:44:58.107Z,14.59
2017-01-21T02:46:07.081Z,14.42
2017-01-21T02:47:16.072Z,14.47
2017-01-21T02:48:25.056Z,14.5
2017-01-21T02:49:34.036Z,14.59
2017-01-21T02:50:43.020Z,14.6
2017-01-21T02:51:52.000Z,14.6
2017-01-21T02:53:00.981Z,14.56
2017-01-21T02:54:09.966Z,14.39
2017-01-21T02:55:18.961Z,14.52
2017-01-21T02:56:27.950Z,14.53
2017-01-21T02:57:36.948Z,14.59
2017-01-21T02:58:45.916Z,14.41
2017-01-21T02:59:54.905Z,14.47
2017-01-21T03:01:03.902Z,14.52
2017-01-21T03:02:12.886Z,14.46
2017-01-21T03:03:21.866Z,14.47
2017-01-21T03:04:30.863Z,14.35
2017-01-21T03:05:39.841Z,14.46
2017-01-21T03:06:48.837Z,14.41
2017-01-21T03:07:57.819Z,14.44
2017-01-21T03:09:06.803Z,14.37
2017-01-21T03:10:15.782Z,14.34
2017-01-21T03:11:24.774Z,14.37
2017-01-21T03:12:33.773Z,14.38
2017-01-21T03:13:42.774Z,14.32
2017-01-21T03:14:51.752Z,14.31
2017-01-21T03:16:00.738Z,14.24
2017-01-21T03:17:09.708Z,14.22
2017-01-21T03:18:18.695Z,14.17
2017-01-21T03:19:27.675Z,14.3
2017-01-21T03:20:36.669Z,14.32
2017-01-21T03:21:45.657Z,14.2
2017-01-21T03:22:54.653Z,14.3
2017-01-21T03:24:03.632Z,14.23
2017-01-21T03:25:12.622Z,14.31
2017-01-21T03:26:21.618Z,14.2
2017-01-21T03:27:30.591Z,14.1
2017-01-21T03:28:39.592Z,14.19
2017-01-21T03:29:48.605Z,14.16
2017-01-21T03:30:57.580Z,14.2
2017-01-21T03:32:06.565Z,14.23
2017-01-21T03:33:15.565Z,14.2
2017-01-21T03:34:24.546Z,14.28
2017-01-21T03:35:33.540Z,14.2
2017-01-21T03:36:42.515Z,14.05
2017-01-21T03:37:51.490Z,14.06
2017-01-21T03:39:00.486Z,14.05
2017-01-21T03:40:09.474Z,14.09
2017-01-21T03:41:18.459Z,14.13
2017-01-21T03:42:27.475Z,14.1
2017-01-21T03:43:36.452Z,14.14
2017-01-21T03:44:45.481Z,14.13
2017-01-21T03:45:54.483Z,14.05
2017-01-21T03:47:03.478Z,14.09
2017-01-21T03:48:12.449Z,14.09
2017-01-21T03:49:21.439Z,14.06
2017-01-21T03:50:30.480Z,13.98
2017-01-21T03:51:39.883Z,13.99
2017-01-21T03:52:48.871Z,13.99
2017-01-21T03:53:57.861Z,13.98
2017-01-21T03:55:06.845Z,13.97
2017-01-21T03:56:15.832Z,13.81
2017-01-21T03:57:24.815Z,13.87
2017-01-21T03:58:33.797Z,13.98
2017-01-21T03:59:42.822Z,14.02
2017-01-21T04:00:51.813Z,13.91
2017-01-21T04:02:00.821Z,14.01
2017-01-21T04:03:09.809Z,13.98
2017-01-21T04:04:18.796Z,13.94
2017-01-21T04:05:27.777Z,13.83
2017-01-21T04:06:36.771Z,13.81
2017-01-21T04:07:45.758Z,13.81
2017-01-21T04:08:54.739Z,13.79
2017-01-21T04:10:03.723Z,13.87
2017-01-21T04:11:12.740Z,13.8
2017-01-21T04:12:21.711Z,13.81
2017-01-21T04:13:30.703Z,13.83
2017-01-21T04:14:39.681Z,13.79
2017-01-21T04:15:48.658Z,13.89
2017-01-21T04:16:57.642Z,13.8
2017-01-21T04:18:06.633Z,13.8
2017-01-21T04:19:15.607Z,13.79
2017-01-21T04:20:24.607Z,13.77
2017-01-21T04:21:33.589Z,13.81
2017-01-21T04:22:42.609Z,13.77
2017-01-21T04:23:51.596Z,13.77
2017-01-21T04:25:00.575Z,13.73
2017-01-21T04:26:09.555Z,13.77
2017-01-21T04:27:18.532Z,13.76
2017-01-21T04:28:27.525Z,13.72
2017-01-21T04:29:36.510Z,13.66
2017-01-21T04:30:45.498Z,13.65
2017-01-21T04:31:54.490Z,13.62
2017-01-21T04:33:03.477Z,13.68
2017-01-21T04:34:12.458Z,13.72
2017-01-21T04:35:21.464Z,13.58
2017-01-21T04:36:30.453Z,13.59
2017-01-21T04:37:39.426Z,13.69
2017-01-21T04:38:48.405Z,13.68
2017-01-21T04:39:57.392Z,13.68
2017-01-21T04:41:06.379Z,13.66
2017-01-21T04:42:15.367Z,13.65
2017-01-21T04:43:24.345Z,13.65
2017-01-21T04:44:33.321Z,13.66
2017-01-21T04:45:42.303Z,13.65
2017-01-21T04:46:51.296Z,13.77
2017-01-21T04:48:00.275Z,13.68
2017-01-21T04:49:09.267Z,13.58
2017-01-21T04:50:18.243Z,13.59
2017-01-21T04:51:27.216Z,13.61
2017-01-21T04:52:36.244Z,13.54
2017-01-21T04:53:45.298Z,13.68
2017-01-21T04:54:54.271Z,13.55
2017-01-21T04:56:03.265Z,13.72
2017-01-21T04:57:12.246Z,13.68
2017-01-21T04:58:21.229Z,13.66
2017-01-21T04:59:30.212Z,13.62
2017-01-21T05:00:39.207Z,13.61
2017-01-21T05:01:48.190Z,13.62
2017-01-21T05:02:57.169Z,13.61
2017-01-21T05:04:06.166Z,13.66
2017-01-21T05:05:15.156Z,13.68
2017-01-21T05:06:24.144Z,13.62
2017-01-21T05:07:33.124Z,13.56
2017-01-21T05:08:42.122Z,13.59
2017-01-21T05:09:51.101Z,13.65
2017-01-21T05:11:00.092Z,13.69
2017-01-21T05:12:09.063Z,13.59
2017-01-21T05:13:18.048Z,13.54
2017-01-21T05:14:27.041Z,13.46
2017-01-21T05:15:36.021Z,13.44
2017-01-21T05:16:45.008Z,13.49
2017-01-21T05:17:54.000Z,13.64
2017-01-21T05:19:02.991Z,13.62
2017-01-21T05:20:11.967Z,13.64
2017-01-21T05:21:20.954Z,13.65
2017-01-21T05:22:29.986Z,13.62
2017-01-21T05:23:38.972Z,13.61
2017-01-21T05:24:47.955Z,13.62
2017-01-21T05:25:56.948Z,13.59
2017-01-21T05:27:05.934Z,13.51
2017-01-21T05:28:14.932Z,13.49
2017-01-21T05:29:23.905Z,13.47
2017-01-21T05:30:32.884Z,13.44
2017-01-21T05:31:41.879Z,13.37
2017-01-21T05:32:50.871Z,13.44
2017-01-21T05:33:59.851Z,13.43
2017-01-21T05:35:08.851Z,13.46
2017-01-21T05:36:17.836Z,13.46
2017-01-21T05:37:26.812Z,13.43
2017-01-21T05:38:35.806Z,13.5
2017-01-21T05:39:44.797Z,13.41
2017-01-21T05:40:53.776Z,13.46
2017-01-21T05:42:02.758Z,13.32
2017-01-21T05:43:11.747Z,13.36
2017-01-21T05:44:20.743Z,13.37
2017-01-21T05:45:29.736Z,13.28
2017-01-21T05:46:38.716Z,13.31
2017-01-21T05:47:47.694Z,13.32
2017-01-21T05:48:56.673Z,13.37
2017-01-21T05:50:05.651Z,13.3
2017-01-21T05:51:14.630Z,13.2
2017-01-21T05:52:23.643Z,13.3
2017-01-21T05:53:32.641Z,13.31
2017-01-21T05:54:41.619Z,13.3
2017-01-21T05:55:50.644Z,13.36
2017-01-21T05:56:59.663Z,13.27
2017-01-21T05:58:08.651Z,13.3
2017-01-21T05:59:17.635Z,13.4
2017-01-21T06:00:26.626Z,13.28
2017-01-21T06:01:35.608Z,13.3
2017-01-21T06:02:44.602Z,13.44
2017-01-21T06:03:53.585Z,13.31
2017-01-21T06:05:02.562Z,13.28
2017-01-21T06:06:11.552Z,13.37
2017-01-21T06:07:20.528Z,13.28
2017-01-21T06:08:29.500Z,13.27
2017-01-21T06:09:38.494Z,13.17
2017-01-21T06:10:47.476Z,13.3
2017-01-21T06:11:56.468Z,13.31
2017-01-21T06:13:05.448Z,13.32
2017-01-21T06:14:14.448Z,13.2
2017-01-21T06:15:23.432Z,13.17
2017-01-21T06:16:32.439Z,13.21
2017-01-21T06:17:41.434Z,13.27
2017-01-21T06:18:50.525Z,13.27
2017-01-21T06:19:59.508Z,13.28
2017-01-21T06:21:08.753Z,13.31
2017-01-21T06:22:17.838Z,13.28
2017-01-21T06:23:26.833Z,13.3
2017-01-21T06:24:35.944Z,13.23
2017-01-21T06:25:44.994Z,13.37
2017-01-21T06:26:53.974Z,13.31
2017-01-21T06:28:02.969Z,13.28
2017-01-21T06:29:11.943Z,13.37
2017-01-21T06:30:20.919Z,13.36
2017-01-21T06:31:29.930Z,13.32
2017-01-21T06:32:38.941Z,13.37
2017-01-21T06:33:47.931Z,13.32
2017-01-21T06:34:56.932Z,13.36
2017-01-21T06:36:05.945Z,13.36
2017-01-21T06:37:14.922Z,13.32
2017-01-21T06:38:23.908Z,13.31
2017-01-21T06:39:32.892Z,13.31
2017-01-21T06:40:41.885Z,13.3
2017-01-21T06:41:50.911Z,13.27
2017-01-21T06:42:59.887Z,13.28
2017-01-21T06:44:08.878Z,13.25
2017-01-21T06:45:17.866Z,13.27
2017-01-21T06:46:26.845Z,13.25
2017-01-21T06:47:35.840Z,13.36
2017-01-21T06:48:44.827Z,13.37
2017-01-21T06:49:53.800Z,13.25
2017-01-21T06:51:02.777Z,13.27
2017-01-21T06:52:11.760Z,13.39
2017-01-21T06:53:20.738Z,13.21
2017-01-21T06:54:29.729Z,13.43
2017-01-21T06:55:38.711Z,13.3
2017-01-21T06:56:47.711Z,13.2
2017-01-21T06:57:56.703Z,13.18
2017-01-21T06:59:05.906Z,13.28
2017-01-21T07:00:14.876Z,13.25
2017-01-21T07:01:23.864Z,13.21
2017-01-21T07:02:32.937Z,13.15
2017-01-21T07:03:41.932Z,13.12
2017-01-21T07:04:50.925Z,13.21
2017-01-21T07:05:59.898Z,13.23
2017-01-21T07:07:08.905Z,13.21
2017-01-21T07:08:17.894Z,13.25
2017-01-21T07:09:26.883Z,13.27
2017-01-21T07:10:35.864Z,13.24
2017-01-21T07:11:44.849Z,13.24
2017-01-21T07:12:53.821Z,13.23
2017-01-21T07:14:02.814Z,13.27
2017-01-21T07:15:11.799Z,13.27
2017-01-21T07:16:20.798Z,13.36
2017-01-21T07:17:29.783Z,13.39
2017-01-21T07:18:38.767Z,13.32
2017-01-21T07:19:47.746Z,13.32
2017-01-21T07:20:56.719Z,13.3
2017-01-21T07:22:05.706Z,13.36
2017-01-21T07:23:14.689Z,13.24
2017-01-21T07:24:23.666Z,13.23
2017-01-21T07:25:32.668Z,13.36
2017-01-21T07:26:41.654Z,13.31
2017-01-21T07:27:50.646Z,13.27
2017-01-21T07:28:59.625Z,13.27
2017-01-21T07:30:08.601Z,13.05
2017-01-21T07:31:17.585Z,13.17
2017-01-21T07:32:26.572Z,13.13
2017-01-21T07:33:35.564Z,13.21
2017-01-21T07:34:44.541Z,13.23
2017-01-21T07:35:53.522Z,13.17
2017-01-21T07:37:02.586Z,13.27
2017-01-21T07:38:11.564Z,13.27
2017-01-21T07:39:20.546Z,13.27
2017-01-21T07:40:29.515Z,13.28
2017-01-21T07:41:38.490Z,13.12
2017-01-21T07:42:47.469Z,13.09
2017-01-21T07:43:56.463Z,13.17
2017-01-21T07:45:05.452Z,13.18
2017-01-21T07:46:14.450Z,13.21
2017-01-21T07:47:23.423Z,13.28
2017-01-21T07:48:32.395Z,13.31
2017-01-21T07:49:41.387Z,13.23
2017-01-21T07:50:50.368Z,13.24
2017-01-21T07:51:59.352Z,13.07
2017-01-21T07:53:08.341Z,13.1
2017-01-21T07:54:17.334Z,13.12
2017-01-21T07:55:26.315Z,13.09
2017-01-21T07:56:35.295Z,13.09
2017-01-21T07:57:44.285Z,13.15
2017-01-21T07:58:53.275Z,13.13
2017-01-21T08:00:02.264Z,13.15
2017-01-21T08:01:11.254Z,13.23
2017-01-21T08:02:20.233Z,13.55
2017-01-21T08:03:29.226Z,13.83
2017-01-21T08:04:38.214Z,14.06
2017-01-21T08:05:47.202Z,14.31
2017-01-21T08:06:56.214Z,14.41
2017-01-21T08:08:05.193Z,14.38
2017-01-21T08:09:14.172Z,14.6
2017-01-21T08:10:23.159Z,14.62
2017-01-21T08:11:32.156Z,14.54
2017-01-21T08:12:41.128Z,14.65
2017-01-21T08:13:50.105Z,14.71
2017-01-21T08:14:59.092Z,14.86
2017-01-21T08:16:08.085Z,14.94
2017-01-21T08:17:17.081Z,14.94
2017-01-21T08:18:26.062Z,15.08
2017-01-21T08:19:35.032Z,15.11
2017-01-21T08:20:44.021Z,15.16
2017-01-21T08:21:53.002Z,15.15
2017-01-21T08:23:02.012Z,15.21
2017-01-21T08:24:11.008Z,15.28
2017-01-21T08:25:20.005Z,15.28
2017-01-21T08:26:28.999Z,15.34
2017-01-21T08:27:37.985Z,15.38
2017-01-21T08:28:46.976Z,15.44
2017-01-21T08:29:55.947Z,15.48
2017-01-21T08:31:04.938Z,15.49
2017-01-21T08:32:13.915Z,15.55
2017-01-21T08:33:23.018Z,15.52
2017-01-21T08:34:32.483Z,15.53
2017-01-21T08:35:41.489Z,15.56
2017-01-21T08:36:50.473Z,15.66
2017-01-21T08:37:59.458Z,15.66
2017-01-21T08:39:08.432Z,15.73
2017-01-21T08:40:17.408Z,15.7
2017-01-21T08:41:26.403Z,15.71
2017-01-21T08:42:35.384Z,15.79
2017-01-21T08:43:44.369Z,15.78
2017-01-21T08:44:53.438Z,15.76
2017-01-21T08:46:02.433Z,15.88
2017-01-21T08:47:11.631Z,15.91
2017-01-21T08:48:21.303Z,15.99
2017-01-21T08:49:30.296Z,15.97
2017-01-21T08:50:39.278Z,16.07
2017-01-21T08:51:48.692Z,16.09
2017-01-21T08:52:58.020Z,16.11
2017-01-21T08:54:07.038Z,16.18
2017-01-21T08:55:16.066Z,16.22
2017-01-21T08:56:25.210Z,16.23
2017-01-21T08:57:34.796Z,16.23
2017-01-21T08:58:44.480Z,16.23
2017-01-21T08:59:53.833Z,16.26
2017-01-21T09:01:03.215Z,16.34
2017-01-21T09:02:12.590Z,16.2
2017-01-21T09:03:21.651Z,16.35
2017-01-21T09:04:30.624Z,16.37
2017-01-21T09:05:39.619Z,16.34
2017-01-21T09:06:49.514Z,16.32
2017-01-21T09:07:58.847Z,16.35
2017-01-21T09:09:08.360Z,16.38
2017-01-21T09:10:17.881Z,16.52
2017-01-21T09:11:27.127Z,16.45
2017-01-21T09:12:36.121Z,16.4
2017-01-21T09:13:45.109Z,16.42
2017-01-21T09:14:54.089Z,16.44
2017-01-21T09:16:03.068Z,16.45
2017-01-21T09:17:12.052Z,16.47
2017-01-21T09:18:21.027Z,16.56
2017-01-21T09:19:30.018Z,16.58
2017-01-21T09:20:39.010Z,16.53
2017-01-21T09:21:47.996Z,16.55
2017-01-21T09:22:56.983Z,16.58
2017-01-21T09:24:05.961Z,16.59
2017-01-21T09:25:14.949Z,16.63
2017-01-21T09:26:23.929Z,16.63
2017-01-21T09:27:32.928Z,16.63
2017-01-21T09:28:41.909Z,16.66
2017-01-21T09:29:50.923Z,16.69
2017-01-21T09:30:59.923Z,16.73
2017-01-21T09:32:08.902Z,16.77
2017-01-21T09:33:17.899Z,16.77
2017-01-21T09:34:26.892Z,16.87
2017-01-21T09:35:35.877Z,16.84
2017-01-21T09:36:44.859Z,16.82
2017-01-21T09:37:53.857Z,16.85
2017-01-21T09:39:02.847Z,16.96
2017-01-21T09:40:11.835Z,16.84
2017-01-21T09:41:20.825Z,16.85
2017-01-21T09:42:29.810Z,16.87
2017-01-21T09:43:38.819Z,16.98
2017-01-21T09:44:47.799Z,16.89
2017-01-21T09:45:56.781Z,16.81
2017-01-21T09:47:05.774Z,16.84
2017-01-21T09:48:14.754Z,16.98
2017-01-21T09:49:23.753Z,16.87
2017-01-21T09:50:32.745Z,16.9
2017-01-21T09:51:41.728Z,16.95
2017-01-21T09:52:50.727Z,17
2017-01-21T09:53:59.706Z,17.05
2017-01-21T09:55:08.695Z,16.99
2017-01-21T09:56:17.665Z,17.1
2017-01-21T09:57:26.650Z,17.05
2017-01-21T09:58:35.640Z,17.13
2017-01-21T09:59:44.687Z,17.1
2017-01-21T10:00:53.680Z,17.21
2017-01-21T10:02:02.824Z,17.26
2017-01-21T10:03:11.957Z,17.26
2017-01-21T10:04:21.027Z,17.26
2017-01-21T10:05:30.107Z,17.32
2017-01-21T10:06:39.108Z,17.32
2017-01-21T10:07:48.181Z,17.38
2017-01-21T10:08:57.198Z,17.39
2017-01-21T10:10:06.306Z,17.26
2017-01-21T10:11:15.460Z,17.36
2017-01-21T10:12:24.532Z,17.36
2017-01-21T10:13:33.760Z,17.42
2017-01-21T10:14:42.745Z,17.39
2017-01-21T10:15:51.912Z,17.4
2017-01-21T10:17:00.954Z,17.45
2017-01-21T10:18:09.947Z,17.44
2017-01-21T10:19:19.268Z,17.51
2017-01-21T10:20:28.288Z,17.45
2017-01-21T10:21:37.359Z,17.54
2017-01-21T10:22:46.456Z,17.54
2017-01-21T10:23:55.537Z,17.54
2017-01-21T10:25:04.795Z,17.62
2017-01-21T10:26:13.821Z,17.62
2017-01-21T10:27:22.867Z,17.67
2017-01-21T10:28:32.180Z,17.67
2017-01-21T10:29:41.251Z,17.69
2017-01-21T10:30:50.288Z,17.73
2017-01-21T10:31:59.395Z,17.74
2017-01-21T10:33:08.742Z,17.79
2017-01-21T10:34:17.792Z,17.77
2017-01-21T10:35:26.792Z,17.89
2017-01-21T10:36:35.809Z,17.91
2017-01-21T10:37:45.240Z,17.89
2017-01-21T10:38:54.269Z,17.88
2017-01-21T10:40:03.354Z,17.91
2017-01-21T10:41:12.357Z,17.8
2017-01-21T10:42:21.770Z,17.85
2017-01-21T10:43:31.055Z,17.94
2017-01-21T10:44:40.210Z,17.95
2017-01-21T10:45:49.397Z,17.94
2017-01-21T10:46:58.447Z,17.96
2017-01-21T10:48:07.438Z,17.92
2017-01-21T10:49:17.182Z,17.95
2017-01-21T10:50:26.289Z,17.95
2017-01-21T10:51:35.713Z,17.95
2017-01-21T10:52:44.980Z,18.02
2017-01-21T10:53:54.045Z,18.09
2017-01-21T10:55:03.433Z,18.07
2017-01-21T10:56:12.525Z,18.02
2017-01-21T10:57:21.622Z,18.04
2017-01-21T10:58:31.187Z,18.09
2017-01-21T10:59:40.245Z,18.16
2017-01-21T11:00:49.355Z,18.13
2017-01-21T11:01:58.466Z,18.26
2017-01-21T11:03:08.087Z,18.17
2017-01-21T11:04:17.147Z,18.26
2017-01-21T11:05:26.427Z,18.22
2017-01-21T11:06:35.507Z,18.21
2017-01-21T11:07:44.620Z,18.25
2017-01-21T11:08:53.747Z,18.24
2017-01-21T11:10:03.219Z,18.4
2017-01-21T11:11:12.335Z,18.35
2017-01-21T11:12:22.210Z,18.43
2017-01-21T11:13:31.918Z,18.43
2017-01-21T11:14:40.984Z,18.39
2017-01-21T11:15:50.180Z,18.44
2017-01-21T11:16:59.225Z,18.4
2017-01-21T11:18:08.335Z,18.53
2017-01-21T11:19:17.342Z,18.53
2017-01-21T11:20:26.438Z,18.51
2017-01-21T11:21:35.447Z,18.68
2017-01-21T11:22:44.503Z,18.65
2017-01-21T11:23:53.489Z,18.65
2017-01-21T11:25:02.482Z,18.62
2017-01-21T11:26:11.470Z,18.61
2017-01-21T11:27:20.464Z,18.65
2017-01-21T11:28:29.466Z,18.65
2017-01-21T11:29:38.450Z,18.71
2017-01-21T11:30:47.448Z,18.72
2017-01-21T11:31:56.433Z,18.68
2017-01-21T11:33:05.680Z,18.57
2017-01-21T11:34:14.666Z,18.53
2017-01-21T11:35:23.647Z,18.66
2017-01-21T11:36:32.636Z,18.65
2017-01-21T11:37:41.623Z,18.72
2017-01-21T11:38:50.622Z,18.72
2017-01-21T11:39:59.604Z,18.69
2017-01-21T11:41:08.604Z,18.68
2017-01-21T11:42:17.577Z,18.68
2017-01-21T11:43:26.573Z,18.69
2017-01-21T11:44:35.562Z,18.66
2017-01-21T11:45:44.566Z,18.72
2017-01-21T11:46:53.582Z,18.69
2017-01-21T11:48:02.560Z,18.65
2017-01-21T11:49:11.548Z,18.77
2017-01-21T11:50:20.545Z,18.69
2017-01-21T11:51:29.536Z,18.79
2017-01-21T11:52:38.623Z,18.77
2017-01-21T11:53:47.972Z,18.79
2017-01-21T11:54:56.958Z,18.72
2017-01-21T11:56:05.956Z,18.8
2017-01-21T11:57:14.948Z,18.74
2017-01-21T11:58:23.945Z,18.79
2017-01-21T11:59:32.927Z,18.79
2017-01-21T12:00:41.908Z,18.81
2017-01-21T12:01:50.914Z,18.83
2017-01-21T12:02:59.919Z,18.84
2017-01-21T12:04:08.927Z,18.81
2017-01-21T12:05:17.909Z,18.95
2017-01-21T12:06:26.900Z,18.89
2017-01-21T12:07:35.919Z,18.95
2017-01-21T12:08:44.912Z,18.95
2017-01-21T12:09:53.902Z,18.95
2017-01-21T12:11:02.891Z,18.95
2017-01-21T12:12:11.882Z,18.97
2017-01-21T12:13:20.862Z,18.94
2017-01-21T12:14:29.855Z,19.06
2017-01-21T12:15:38.851Z,19.02
2017-01-21T12:16:47.850Z,18.98
2017-01-21T12:17:56.880Z,19.02
2017-01-21T12:19:05.869Z,19.01
2017-01-21T12:20:14.875Z,19.01
2017-01-21T12:21:23.868Z,19.06
2017-01-21T12:22:33.275Z,19.07
2017-01-21T12:23:42.296Z,19.05
2017-01-21T12:24:51.286Z,19.18
2017-01-21T12:26:00.270Z,19.02
2017-01-21T12:27:09.298Z,19.12
2017-01-21T12:28:18.288Z,19.12
2017-01-21T12:29:27.274Z,19.14
2017-01-21T12:30:36.260Z,19.2
2017-01-21T12:31:45.246Z,19.17
2017-01-21T12:32:54.223Z,19.2
2017-01-21T12:34:03.214Z,19.12
2017-01-21T12:35:12.199Z,19.18
2017-01-21T12:36:21.214Z,19.2
2017-01-21T12:37:30.192Z,19.18
2017-01-21T12:38:39.203Z,19.2
2017-01-21T12:39:48.189Z,19.2
2017-01-21T12:40:57.192Z,19.2
2017-01-21T12:42:06.174Z,19.25
2017-01-21T12:43:15.151Z,19.22
2017-01-21T12:44:24.153Z,19.15
2017-01-21T12:45:33.149Z,19.25
2017-01-21T12:46:42.135Z,19.2
2017-01-21T12:47:51.125Z,19.2
2017-01-21T12:49:00.113Z,19.24
2017-01-21T12:50:09.099Z,19.22
2017-01-21T12:51:18.089Z,19.25
2017-01-21T12:52:27.073Z,19.21
2017-01-21T12:53:36.065Z,19.21
2017-01-21T12:54:45.065Z,19.3
2017-01-21T12:55:54.052Z,19.25
2017-01-21T12:57:03.044Z,19.37
2017-01-21T12:58:12.036Z,19.35
2017-01-21T12:59:21.045Z,19.39
2017-01-21T13:00:30.024Z,19.24
2017-01-21T13:01:38.999Z,19.33
2017-01-21T13:02:47.995Z,19.24
2017-01-21T13:03:56.987Z,19.28
2017-01-21T13:05:05.969Z,19.32
2017-01-21T13:06:14.967Z,19.36
2017-01-21T13:07:23.983Z,19.28
2017-01-21T13:08:32.968Z,19.32
2017-01-21T13:09:41.990Z,19.25
2017-01-21T13:10:50.969Z,19.36
2017-01-21T13:11:59.976Z,19.36
2017-01-21T13:13:08.962Z,19.28
2017-01-21T13:14:17.953Z,19.36
2017-01-21T13:15:26.946Z,19.3
2017-01-21T13:16:35.941Z,19.27
2017-01-21T13:17:44.922Z,19.28
2017-01-21T13:18:53.907Z,19.4
2017-01-21T13:20:02.896Z,19.39
2017-01-21T13:21:11.878Z,19.32
2017-01-21T13:22:20.873Z,19.36
2017-01-21T13:23:29.868Z,19.32
2017-01-21T13:24:38.856Z,19.37
2017-01-21T13:25:47.845Z,19.37
2017-01-21T13:26:56.828Z,19.4
2017-01-21T13:28:06.233Z,19.43
2017-01-21T13:29:15.214Z,19.36
2017-01-21T13:30:24.207Z,19.39
2017-01-21T13:31:33.205Z,19.5
2017-01-21T13:32:42.202Z,19.42
2017-01-21T13:33:51.199Z,19.39
2017-01-21T13:35:00.194Z,19.43
2017-01-21T13:36:09.182Z,19.42
2017-01-21T13:37:18.164Z,19.35
2017-01-21T13:38:27.161Z,19.45
2017-01-21T13:39:36.140Z,19.43
2017-01-21T13:40:45.154Z,19.42
2017-01-21T13:41:54.137Z,19.4
2017-01-21T13:43:03.131Z,19.45
2017-01-21T13:44:12.130Z,19.42
2017-01-21T13:45:21.124Z,19.45
2017-01-21T13:46:30.136Z,19.43
2017-01-21T13:47:39.123Z,19.4
2017-01-21T13:48:48.113Z,19.45
2017-01-21T13:49:57.097Z,19.43
2017-01-21T13:51:06.130Z,19.47
2017-01-21T13:52:15.112Z,19.46
2017-01-21T13:53:24.101Z,19.43
2017-01-21T13:54:33.094Z,19.43
2017-01-21T13:55:42.084Z,19.43
2017-01-21T13:56:51.075Z,19.5
2017-01-21T13:58:00.060Z,19.46
2017-01-21T13:59:09.050Z,19.47
2017-01-21T14:00:18.039Z,19.42
2017-01-21T14:01:27.031Z,19.47
2017-01-21T14:02:36.025Z,19.43
2017-01-21T14:03:45.018Z,19.46
2017-01-21T14:04:54.015Z,19.43
2017-01-21T14:06:03.006Z,19.47
2017-01-21T14:07:12.007Z,19.45
2017-01-21T14:08:21.002Z,19.51
2017-01-21T14:09:29.993Z,19.45
2017-01-21T14:10:38.979Z,19.43
2017-01-21T14:11:47.969Z,19.46
2017-01-21T14:12:56.961Z,19.46
2017-01-21T14:14:05.943Z,19.47
2017-01-21T14:15:14.931Z,19.51
2017-01-21T14:16:23.923Z,19.45
2017-01-21T14:17:32.903Z,19.45
2017-01-21T14:18:41.890Z,19.42
2017-01-21T14:19:50.891Z,19.55
2017-01-21T14:20:59.884Z,19.5
2017-01-21T14:22:08.874Z,19.54
2017-01-21T14:23:17.868Z,19.5
2017-01-21T14:24:26.854Z,19.5
2017-01-21T14:25:35.897Z,19.5
2017-01-21T14:26:44.890Z,19.55
2017-01-21T14:27:53.888Z,19.53
2017-01-21T14:29:02.875Z,19.53
2017-01-21T14:30:11.858Z,19.4
2017-01-21T14:31:20.878Z,19.5
2017-01-21T14:32:29.866Z,19.53
2017-01-21T14:33:38.858Z,19.51
2017-01-21T14:34:48.249Z,19.6
2017-01-21T14:35:57.247Z,19.5
2017-01-21T14:37:06.236Z,19.5
2017-01-21T14:38:15.227Z,19.53
2017-01-21T14:39:24.244Z,19.47
2017-01-21T14:40:33.357Z,19.43
2017-01-21T14:41:42.352Z,19.43
2017-01-21T14:42:51.342Z,19.36
2017-01-21T14:44:00.348Z,19.32
2017-01-21T14:45:09.339Z,19.39
2017-01-21T14:46:18.384Z,19.42
2017-01-21T14:47:27.361Z,19.43
2017-01-21T14:48:36.379Z,19.45
2017-01-21T14:49:45.367Z,19.42
2017-01-21T14:50:54.390Z,19.43
2017-01-21T14:52:03.397Z,19.46